createdAt,value
2022-10-18T00:00:02.943Z,85.3
2022-10-18T00:03:02.970Z,85.3
2022-10-18T00:06:02.934Z,85.3
2022-10-18T00:09:02.936Z,85.3
2022-10-18T00:12:02.962Z,86.3
2022-10-18T00:15:02.953Z,86.3
2022-10-18T00:18:02.925Z,86.3
2022-10-18T00:21:02.933Z,86.3
2022-10-18T00:24:02.902Z,86.3
2022-10-18T00:27:02.929Z,86.3
2022-10-18T00:30:02.974Z,86.3
2022-10-18T00:33:02.884Z,86.3
2022-10-18T00:36:02.991Z,86.3
2022-10-18T00:39:02.991Z,86.3
2022-10-18T00:42:02.888Z,86.2
2022-10-18T00:45:02.904Z,86.3
2022-10-18T00:48:02.928Z,86.3
2022-10-18T00:51:02.923Z,86.3
2022-10-18T00:54:02.909Z,86.3
2022-10-18T00:57:02.914Z,86.3
2022-10-18T01:00:02.968Z,86.3
2022-10-18T01:03:02.936Z,86.3
2022-10-18T01:06:02.902Z,86.3
2022-10-18T01:09:02.941Z,86.3
2022-10-18T01:12:02.897Z,86.3
2022-10-18T01:15:02.916Z,86.3
2022-10-18T01:18:02.917Z,86.3
2022-10-18T01:21:02.918Z,86.3
2022-10-18T01:24:02.890Z,86.3
2022-10-18T01:27:02.946Z,86.3
2022-10-18T01:30:03.056Z,86.3
2022-10-18T01:33:02.962Z,86.3
2022-10-18T01:36:02.905Z,86.3
2022-10-18T01:39:02.949Z,86.3
2022-10-18T01:42:02.947Z,87.3
2022-10-18T01:45:02.995Z,87.3
2022-10-18T01:48:02.963Z,87.3
2022-10-18T01:51:02.925Z,87.9
2022-10-18T01:54:02.973Z,87.9
2022-10-18T01:57:02.948Z,87.9
2022-10-18T02:00:02.987Z,87.9
2022-10-18T02:03:02.948Z,87.9
2022-10-18T02:06:02.996Z,87.9
2022-10-18T02:09:02.954Z,87.9
2022-10-18T02:12:03.015Z,87.9
2022-10-18T02:15:03.127Z,87.9
2022-10-18T02:18:02.916Z,87.9
2022-10-18T02:21:02.894Z,87.9
2022-10-18T02:24:03.016Z,87.9
2022-10-18T02:27:02.913Z,87.9
2022-10-18T02:30:02.956Z,87.9
2022-10-18T02:33:02.923Z,88.4
2022-10-18T02:36:02.939Z,88.4
2022-10-18T02:39:02.877Z,88.4
2022-10-18T02:42:02.960Z,88.4
2022-10-18T02:45:02.901Z,87.5
2022-10-18T02:48:02.925Z,87.5
2022-10-18T02:51:02.887Z,87.5
2022-10-18T02:54:02.950Z,87.5
2022-10-18T02:57:02.905Z,87.5
2022-10-18T03:00:02.906Z,87.5
2022-10-18T03:03:02.917Z,87.5
2022-10-18T03:06:02.952Z,87.5
2022-10-18T03:09:02.915Z,86.8
2022-10-18T03:12:02.899Z,86.8
2022-10-18T03:15:02.952Z,86.8
2022-10-18T03:18:02.992Z,86.8
2022-10-18T03:21:02.971Z,86.8
2022-10-18T03:24:02.917Z,86.8
2022-10-18T03:27:02.945Z,86.8
2022-10-18T03:30:02.938Z,86.7
2022-10-18T03:33:02.949Z,86.7
2022-10-18T03:36:02.922Z,86.7
2022-10-18T03:39:02.937Z,86.7
2022-10-18T03:42:02.904Z,86.7
2022-10-18T03:45:02.895Z,86.7
2022-10-18T03:48:03.006Z,86.7
2022-10-18T03:51:02.905Z,86.7
2022-10-18T03:54:03.028Z,86.7
2022-10-18T03:57:02.867Z,86.7
2022-10-18T04:00:03.029Z,86.7
2022-10-18T04:03:02.916Z,86.7
2022-10-18T04:06:02.924Z,86.7
2022-10-18T04:09:04.136Z,86.7
2022-10-18T04:12:02.919Z,86.7
2022-10-18T04:15:02.908Z,86.7
2022-10-18T04:18:02.940Z,86.7
2022-10-18T04:21:02.930Z,86.7
2022-10-18T04:24:02.971Z,86.7
2022-10-18T04:27:02.954Z,86.7
2022-10-18T04:30:02.940Z,86.7
2022-10-18T04:33:03.025Z,86.7
2022-10-18T04:36:02.972Z,86.7
2022-10-18T04:39:02.928Z,86.7
2022-10-18T04:42:02.909Z,86.7
2022-10-18T04:45:02.997Z,86.7
2022-10-18T04:48:02.948Z,86.7
2022-10-18T04:51:02.980Z,86.7
2022-10-18T04:54:03.054Z,86.7
2022-10-18T04:57:02.931Z,86.7
2022-10-18T05:00:02.998Z,86.7
2022-10-18T05:03:02.913Z,86.7
2022-10-18T05:06:05.781Z,86.7
2022-10-18T05:09:03.628Z,86.7
2022-10-18T05:12:02.909Z,86.7
2022-10-18T05:15:02.908Z,86.7
2022-10-18T05:18:03.009Z,86.7
2022-10-18T05:21:02.944Z,86.7
2022-10-18T05:24:02.910Z,87
2022-10-18T05:27:02.944Z,87
2022-10-18T05:30:08.153Z,87
2022-10-18T05:33:02.906Z,87
2022-10-18T05:36:02.971Z,87
2022-10-18T05:39:07.270Z,87.2
2022-10-18T05:42:02.949Z,87.2
2022-10-18T05:45:02.910Z,87.2
2022-10-18T05:48:02.903Z,87.2
2022-10-18T05:51:02.934Z,87.2
2022-10-18T05:54:02.914Z,87.2
2022-10-18T05:57:02.974Z,87.2
2022-10-18T06:00:03.105Z,87.2
2022-10-18T06:03:03.270Z,87.2
2022-10-18T06:06:02.965Z,87.2
2022-10-18T06:09:02.996Z,87.2
2022-10-18T06:12:02.963Z,87.2
2022-10-18T06:15:03.032Z,87.7
2022-10-18T06:18:02.922Z,87.7
2022-10-18T06:21:02.946Z,87.7
2022-10-18T06:24:03.017Z,87.7
2022-10-18T06:27:03.121Z,87.7
2022-10-18T06:30:02.960Z,87.7
2022-10-18T06:33:02.966Z,87.7
2022-10-18T06:36:02.958Z,87.7
2022-10-18T06:39:02.944Z,87.7
2022-10-18T06:42:02.944Z,87.7
2022-10-18T06:45:03.006Z,87.7
2022-10-18T06:48:02.963Z,87.7
2022-10-18T06:51:02.961Z,87.7
2022-10-18T06:54:20.852Z,87.7
2022-10-18T06:57:02.999Z,87.7
2022-10-18T07:00:03.042Z,87.7
2022-10-18T07:03:03.028Z,87.7
2022-10-18T07:06:03.050Z,87.7
2022-10-18T07:09:02.998Z,87.7
2022-10-18T07:12:02.983Z,89.1
2022-10-18T07:15:09.436Z,89
2022-10-18T07:18:02.960Z,89
2022-10-18T07:21:03.005Z,89
2022-10-18T07:24:02.945Z,89
2022-10-18T07:27:03.025Z,89
2022-10-18T07:30:03.009Z,89
2022-10-18T07:33:03.024Z,89
2022-10-18T07:36:02.959Z,89
2022-10-18T07:39:03.049Z,89
2022-10-18T07:42:02.994Z,89
2022-10-18T07:45:02.920Z,89
2022-10-18T07:48:03.005Z,89
2022-10-18T07:51:03.002Z,89
2022-10-18T07:54:02.974Z,89
2022-10-18T07:57:03.138Z,89.4
2022-10-18T08:00:03.074Z,89.4
2022-10-18T08:03:02.948Z,89.4
2022-10-18T08:06:03.028Z,89.4
2022-10-18T08:09:02.949Z,89.5
2022-10-18T08:12:03.009Z,89.5
2022-10-18T08:15:03.032Z,89.5
2022-10-18T08:18:02.987Z,89.5
2022-10-18T08:21:02.954Z,89.5
2022-10-18T08:24:02.941Z,89.5
2022-10-18T08:27:02.999Z,89.5
2022-10-18T08:30:03.256Z,89.5
2022-10-18T08:33:02.965Z,89.5
2022-10-18T08:36:02.991Z,89.5
2022-10-18T08:39:02.990Z,89.5
2022-10-18T08:42:02.928Z,89.5
2022-10-18T08:45:41.789Z,89.5
2022-10-18T08:48:02.979Z,89.5
2022-10-18T08:51:03.035Z,89.5
2022-10-18T08:54:02.990Z,89.5
2022-10-18T08:57:02.983Z,89.5
2022-10-18T09:00:03.012Z,89.5
2022-10-18T09:03:03.080Z,89.5
2022-10-18T09:06:02.993Z,90.8
2022-10-18T09:09:02.975Z,90.8
2022-10-18T09:12:04.633Z,90.7
2022-10-18T09:15:02.972Z,90.7
2022-10-18T09:18:03.002Z,90.7
2022-10-18T09:21:02.989Z,90.7
2022-10-18T09:24:03.123Z,90.7
2022-10-18T09:27:03.005Z,90.7
2022-10-18T09:30:03.056Z,90.7
2022-10-18T09:33:02.965Z,90.7
2022-10-18T09:36:02.966Z,90.7
2022-10-18T09:39:03.149Z,90.4
2022-10-18T09:42:03.020Z,90.4
2022-10-18T09:45:02.991Z,90.4
2022-10-18T09:48:03.003Z,90.4
2022-10-18T09:51:02.977Z,90.4
2022-10-18T09:54:02.967Z,90.4
2022-10-18T09:57:03.025Z,90
2022-10-18T10:00:03.056Z,90
2022-10-18T10:03:02.934Z,90
2022-10-18T10:06:03.035Z,90
2022-10-18T10:09:03.007Z,90
2022-10-18T10:12:02.993Z,90
2022-10-18T10:15:02.951Z,90
2022-10-18T10:18:03.060Z,90
2022-10-18T10:21:03.117Z,90
2022-10-18T10:24:02.975Z,90
2022-10-18T10:27:02.935Z,90
2022-10-18T10:30:09.437Z,88.4
2022-10-18T10:33:02.954Z,88.4
2022-10-18T10:36:02.965Z,88.4
2022-10-18T10:39:03.248Z,88.4
2022-10-18T10:42:04.168Z,88.4
2022-10-18T10:45:02.967Z,88.4
2022-10-18T10:48:03.023Z,88.4
2022-10-18T10:51:02.935Z,88.4
2022-10-18T10:54:03.002Z,88.4
2022-10-18T10:57:03.097Z,87.7
2022-10-18T11:00:03.098Z,87.7
2022-10-18T11:03:30.767Z,87.7
2022-10-18T11:06:03.273Z,87.7
2022-10-18T11:09:02.973Z,87.7
2022-10-18T11:12:03.033Z,87.7
2022-10-18T11:15:02.946Z,87.7
2022-10-18T11:18:03.044Z,87.7
2022-10-18T11:21:02.983Z,87.7
2022-10-18T11:24:02.948Z,87.7
2022-10-18T11:27:03.024Z,87.7
2022-10-18T11:30:03.048Z,87.7
2022-10-18T11:33:02.954Z,86.1
2022-10-18T11:36:06.250Z,86.1
2022-10-18T11:39:03.063Z,86.1
2022-10-18T11:42:02.971Z,86.1
2022-10-18T11:45:03.103Z,86.1
2022-10-18T11:48:03.665Z,86.1
2022-10-18T11:51:02.948Z,85.4
2022-10-18T11:54:03.016Z,85.4
2022-10-18T11:57:02.990Z,85.4
2022-10-18T12:00:03.011Z,85.4
2022-10-18T12:03:03.273Z,85.4
2022-10-18T12:06:03.092Z,85.4
2022-10-18T12:09:02.938Z,85.4
2022-10-18T12:12:02.934Z,85.4
2022-10-18T12:15:03.007Z,85.4
2022-10-18T12:18:03.026Z,85.4
2022-10-18T12:21:02.973Z,85
2022-10-18T12:24:02.935Z,85
2022-10-18T12:27:02.953Z,85
2022-10-18T12:30:03.045Z,85
2022-10-18T12:33:29.416Z,85
2022-10-18T12:36:03.062Z,85
2022-10-18T12:39:02.958Z,85
2022-10-18T12:42:02.993Z,84
2022-10-18T12:45:03.008Z,84
2022-10-18T12:48:03.027Z,84
2022-10-18T12:51:03.010Z,84
2022-10-18T12:54:02.935Z,84
2022-10-18T12:57:03.052Z,84
2022-10-18T13:00:03.138Z,84
2022-10-18T13:03:03.028Z,84
2022-10-18T13:06:08.973Z,84
2022-10-18T13:09:03.052Z,84
2022-10-18T13:12:04.614Z,84
2022-10-18T13:15:30.073Z,84
2022-10-18T13:18:02.958Z,84
2022-10-18T13:21:02.969Z,84
2022-10-18T13:24:03.008Z,84
2022-10-18T13:27:37.839Z,84
2022-10-18T13:30:03.045Z,84
2022-10-18T13:33:02.948Z,84
2022-10-18T13:36:03.023Z,83.2
2022-10-18T13:39:03.007Z,83.2
2022-10-18T13:42:03.020Z,83.2
2022-10-18T13:45:02.956Z,83.2
2022-10-18T13:48:02.965Z,83.2
2022-10-18T13:51:02.975Z,83.2
2022-10-18T13:54:03.084Z,83.2
2022-10-18T13:57:03.042Z,83.2
2022-10-18T14:00:03.113Z,83.2
2022-10-18T14:03:04.324Z,83.2
2022-10-18T14:06:02.966Z,83.2
2022-10-18T14:09:39.883Z,83.2
2022-10-18T14:12:02.996Z,83.2
2022-10-18T14:15:03.062Z,83.2
2022-10-18T14:18:02.977Z,83.2
2022-10-18T14:21:21.919Z,83.2
2022-10-18T14:24:02.934Z,83.2
2022-10-18T14:27:02.997Z,78.9
2022-10-18T14:30:03.074Z,78.9
2022-10-18T14:33:03.013Z,77.8
2022-10-18T14:36:02.971Z,77.8
2022-10-18T14:39:02.965Z,77.8
2022-10-18T14:42:02.992Z,77.8
2022-10-18T14:45:03.480Z,77.8
2022-10-18T14:48:03.390Z,77.8
2022-10-18T14:51:03.138Z,77.8
2022-10-18T14:54:03.251Z,77.8
2022-10-18T14:57:03.176Z,77.8
2022-10-18T15:00:03.210Z,77.8
2022-10-18T15:03:02.992Z,76.2
2022-10-18T15:06:02.996Z,76.2
2022-10-18T15:09:02.965Z,76.2
2022-10-18T15:12:03.017Z,76.2
2022-10-18T15:15:03.004Z,76.2
2022-10-18T15:18:03.010Z,76.2
2022-10-18T15:21:02.955Z,76.2
2022-10-18T15:24:03.009Z,76.2
2022-10-18T15:27:02.959Z,72.1
2022-10-18T15:30:03.228Z,72.1
2022-10-18T15:33:03.005Z,72.1
2022-10-18T15:36:03.002Z,72.2
2022-10-18T15:39:02.944Z,72.2
2022-10-18T15:42:02.932Z,72.2
2022-10-18T15:45:02.994Z,72.2
2022-10-18T15:48:02.920Z,72.2
2022-10-18T15:51:02.990Z,72.2
2022-10-18T15:54:03.073Z,72.2
2022-10-18T15:57:02.943Z,72.2
2022-10-18T16:00:03.077Z,72.2
2022-10-18T16:03:02.950Z,72.2
2022-10-18T16:06:03.136Z,72.2
2022-10-18T16:09:02.960Z,72.2
2022-10-18T16:12:03.101Z,72.2
2022-10-18T16:15:02.962Z,72.2
2022-10-18T16:18:03.057Z,72.2
2022-10-18T16:21:02.894Z,72.2
2022-10-18T16:24:02.936Z,73.6
2022-10-18T16:27:02.946Z,73.6
2022-10-18T16:30:05.063Z,73.6
2022-10-18T16:33:02.907Z,73.6
2022-10-18T16:36:02.983Z,73.6
2022-10-18T16:39:03.042Z,73.6
2022-10-18T16:42:02.944Z,73.6
2022-10-18T16:45:02.948Z,73.6
2022-10-18T16:48:02.939Z,73.6
2022-10-18T16:51:02.911Z,73.6
2022-10-18T16:54:02.982Z,74.4
2022-10-18T16:57:02.921Z,74.4
2022-10-18T17:00:03.043Z,74.4
2022-10-18T17:03:02.957Z,74.4
2022-10-18T17:06:02.910Z,74.4
2022-10-18T17:09:02.990Z,74.4
2022-10-18T17:12:02.938Z,74.4
2022-10-18T17:15:02.938Z,74.4
2022-10-18T17:18:02.941Z,75.8
2022-10-18T17:21:02.871Z,75.8
2022-10-18T17:24:03.060Z,75.8
2022-10-18T17:27:02.873Z,75.8
2022-10-18T17:30:02.983Z,76.2
2022-10-18T17:33:02.958Z,76.2
2022-10-18T17:36:02.957Z,76.2
2022-10-18T17:39:02.979Z,76.2
2022-10-18T17:42:02.945Z,76.2
2022-10-18T17:45:02.941Z,76.2
2022-10-18T17:48:02.993Z,76.2
2022-10-18T17:51:02.951Z,76.9
2022-10-18T17:54:04.148Z,76.9
2022-10-18T17:57:02.926Z,76.9
2022-10-18T18:00:02.957Z,76.9
2022-10-18T18:03:03.170Z,76.9
2022-10-18T18:06:02.999Z,76.9
2022-10-18T18:09:02.868Z,76.9
2022-10-18T18:12:02.988Z,76.9
2022-10-18T18:15:02.889Z,78.1
2022-10-18T18:18:02.956Z,78.1
2022-10-18T18:21:02.926Z,78.1
2022-10-18T18:24:02.936Z,78.1
2022-10-18T18:27:02.923Z,78.7
2022-10-18T18:30:02.996Z,78.7
2022-10-18T18:33:02.939Z,78.7
2022-10-18T18:36:02.954Z,78.7
2022-10-18T18:39:02.960Z,78.7
2022-10-18T18:42:02.905Z,78.7
2022-10-18T18:45:02.922Z,78.7
2022-10-18T18:48:02.883Z,78.7
2022-10-18T18:51:03.022Z,79.2
2022-10-18T18:54:03.032Z,79.2
2022-10-18T18:57:02.922Z,79.2
2022-10-18T19:00:02.984Z,79.2
2022-10-18T19:03:02.928Z,79.2
2022-10-18T19:06:04.277Z,78.8
2022-10-18T19:09:02.935Z,78.8
2022-10-18T19:12:03.259Z,78.8
2022-10-18T19:15:02.900Z,78.6
2022-10-18T19:18:02.906Z,78.6
2022-10-18T19:21:02.865Z,78.6
2022-10-18T19:24:02.911Z,78.6
2022-10-18T19:27:03.006Z,78.6
2022-10-18T19:30:02.931Z,78.6
2022-10-18T19:33:06.004Z,78.6
2022-10-18T19:36:02.943Z,78.6
2022-10-18T19:39:02.977Z,79.5
2022-10-18T19:42:02.921Z,79.5
2022-10-18T19:45:03.020Z,79.5
2022-10-18T19:48:02.969Z,79.5
2022-10-18T19:51:02.923Z,79.5
2022-10-18T19:54:02.915Z,79.5
2022-10-18T19:57:02.913Z,79.5
2022-10-18T20:00:06.754Z,79.4
2022-10-18T20:03:02.927Z,79.4
2022-10-18T20:06:02.938Z,78.8
2022-10-18T20:09:02.892Z,78.8
2022-10-18T20:12:02.922Z,78.8
2022-10-18T20:15:02.976Z,78.8
2022-10-18T20:18:02.994Z,78.8
2022-10-18T20:21:02.913Z,78.8
2022-10-18T20:24:02.932Z,78.8
2022-10-18T20:27:02.889Z,78.8
2022-10-18T20:30:05.290Z,78.8
2022-10-18T20:33:02.941Z,78.8
2022-10-18T20:39:02.936Z,78.8
2022-10-18T20:42:02.973Z,78.8
2022-10-18T20:48:02.928Z,78.8
2022-10-18T20:51:02.954Z,80
2022-10-18T20:54:03.053Z,80
2022-10-18T20:57:02.909Z,80.1
2022-10-18T21:00:02.943Z,80.1
2022-10-18T21:03:03.077Z,80.1
2022-10-18T21:06:02.965Z,80.1
2022-10-18T21:09:02.888Z,79.9
2022-10-18T21:12:03.117Z,79.9
2022-10-18T21:15:02.898Z,79.9
2022-10-18T21:18:02.933Z,79.9
2022-10-18T21:21:03.052Z,79.9
2022-10-18T21:24:10.016Z,79.9
2022-10-18T21:27:02.931Z,79.9
2022-10-18T21:30:03.138Z,79.9
2022-10-18T21:33:02.969Z,79.9
2022-10-18T21:36:02.900Z,79.9
2022-10-18T21:39:02.886Z,79.9
2022-10-18T21:42:02.903Z,79.9
2022-10-18T21:45:02.917Z,79.9
2022-10-18T21:48:02.896Z,81.6
2022-10-18T21:51:02.921Z,81.6
2022-10-18T21:54:02.941Z,81.6
2022-10-18T21:57:02.969Z,81.6
2022-10-18T22:00:03.246Z,81.6
2022-10-18T22:03:02.931Z,81.6
2022-10-18T22:06:02.940Z,81.6
2022-10-18T22:09:02.940Z,81.6
2022-10-18T22:12:02.949Z,81.6
2022-10-18T22:15:02.880Z,81.6
2022-10-18T22:18:02.947Z,81.6
2022-10-18T22:21:02.926Z,81.6
2022-10-18T22:24:02.904Z,81.6
2022-10-18T22:27:02.968Z,81.6
2022-10-18T22:30:02.920Z,81.6
2022-10-18T22:33:02.899Z,81.6
2022-10-18T22:36:02.946Z,81.6
2022-10-18T22:39:02.966Z,81.6
2022-10-18T22:42:02.939Z,81.6
2022-10-18T22:45:02.892Z,81.6
2022-10-18T22:48:02.933Z,81.6
2022-10-18T22:51:02.870Z,81.6
2022-10-18T22:54:02.960Z,84.3
2022-10-18T22:57:02.894Z,84.3
2022-10-18T23:00:02.955Z,84.3
2022-10-18T23:03:02.953Z,84.3
2022-10-18T23:06:02.920Z,84.3
2022-10-18T23:09:02.919Z,84.3
2022-10-18T23:12:02.926Z,84.3
2022-10-18T23:15:02.887Z,84.3
2022-10-18T23:18:02.891Z,84.8
2022-10-18T23:21:02.923Z,84.8
2022-10-18T23:24:02.914Z,84.8
2022-10-18T23:27:02.967Z,84.8
2022-10-18T23:30:02.959Z,84.8
2022-10-18T23:33:02.902Z,84.8
2022-10-18T23:36:02.938Z,84.8
2022-10-18T23:39:02.937Z,84.8
2022-10-18T23:42:02.914Z,84.8
2022-10-18T23:45:02.928Z,84.8
2022-10-18T23:48:02.932Z,85
2022-10-18T23:51:02.878Z,85
2022-10-18T23:54:02.920Z,85
2022-10-18T23:57:02.890Z,85
